Time;durP1;ratioP1;P1;durP2;ratioP2;P2;SDS_P1;SDS_P2;PMS_P1;PMS_P2;Temp;Humidity;BMP_temperature;BMP_pressure;BME280_temperature;BME280_humidity;BME280_pressure;Samples;Min_cycle;Max_cycle;Signal;HPM_P1;HPM_P2
2023/03/17 00:01:19;;;;;;;7.30;4.90;;;;;;;8.32;41.63;97888.25;8378990;28;20224;-67
2023/03/17 00:05:24;;;;;;;6.37;5.00;;;;;;;8.27;41.58;97882.41;8378757;28;20228;-67
2023/03/17 00:09:27;;;;;;;6.17;4.93;;;;;;;8.03;42.09;97890.13;8378917;28;20236;-68
2023/03/17 00:13:30;;;;;;;5.20;4.77;;;;;;;8.25;42.11;97885.94;8379046;28;20235;-68
2023/03/17 00:17:33;;;;;;;4.90;4.50;;;;;;;8.38;41.67;97884.59;8378759;28;20228;-67
2023/03/17 00:21:37;;;;;;;4.93;4.43;;;;;;;8.30;41.58;97878.88;8378567;28;20232;-68
2023/03/17 00:25:42;;;;;;;5.17;4.67;;;;;;;8.03;42.30;97873.81;8378454;28;20236;-68
2023/03/17 00:29:45;;;;;;;4.83;4.40;;;;;;;8.00;41.97;97873.94;8378218;28;20230;-68
2023/03/17 00:33:50;;;;;;;5.27;4.70;;;;;;;8.18;41.29;97875.00;8381016;28;20239;-67
2023/03/17 00:37:56;;;;;;;6.20;4.60;;;;;;;8.21;41.58;97856.84;8384831;28;20288;-68
2023/03/17 00:41:59;;;;;;;4.80;4.13;;;;;;;8.22;41.68;97851.63;8384727;28;20540;-68
2023/03/17 00:46:05;;;;;;;4.47;4.07;;;;;;;7.76;41.80;97844.69;8384541;28;20228;-67
2023/03/17 00:50:13;;;;;;;5.13;4.63;;;;;;;7.77;42.31;97838.66;8384553;28;20221;-68
2023/03/17 00:54:19;;;;;;;5.27;4.47;;;;;;;7.16;43.12;97828.66;8384553;28;20244;-67
2023/03/17 00:58:25;;;;;;;5.20;4.33;;;;;;;7.38;42.50;97823.66;8384311;28;20236;-67
2023/03/17 01:02:29;;;;;;;6.13;4.50;;;;;;;7.16;42.75;97808.06;8383918;28;20240;-68
2023/03/17 01:06:32;;;;;;;6.50;4.37;;;;;;;7.62;41.84;97811.66;8383929;28;20410;-68
2023/03/17 01:10:37;;;;;;;5.60;4.20;;;;;;;8.05;41.42;97814.44;8383808;28;20347;-68
2023/03/17 01:14:40;;;;;;;5.07;4.47;;;;;;;7.91;41.30;97812.38;8383906;28;20469;-68
2023/03/17 01:18:44;;;;;;;4.57;4.07;;;;;;;7.63;41.87;97803.88;8383225;28;20224;-68
2023/03/17 01:22:47;;;;;;;4.03;3.60;;;;;;;7.74;41.00;97805.22;8383302;28;20296;-67
2023/03/17 01:26:53;;;;;;;3.60;3.30;;;;;;;7.49;41.50;97813.81;8383058;28;20240;-67
2023/03/17 01:30:56;;;;;;;4.27;3.80;;;;;;;7.28;42.04;97806.81;8383262;28;20233;-67
2023/03/17 01:34:59;;;;;;;3.77;3.40;;;;;;;7.83;41.15;97805.75;8383231;28;20224;-68
2023/03/17 01:39:04;;;;;;;3.83;3.40;;;;;;;7.59;41.65;97784.25;8383080;28;20251;-67
2023/03/17 01:43:20;;;;;;;3.53;3.20;;;;;;;7.65;41.22;97801.22;8382862;28;20229;-68
2023/03/17 01:47:24;;;;;;;3.37;2.87;;;;;;;7.98;40.76;97809.50;8382974;28;20533;-67
2023/03/17 01:51:31;;;;;;;4.73;3.30;;;;;;;7.98;40.69;97803.53;8382485;28;20261;-67
2023/03/17 01:55:34;;;;;;;3.93;2.77;;;;;;;7.48;41.65;97798.41;8382427;28;20241;-67
2023/03/17 01:59:44;;;;;;;3.27;3.00;;;;;;;7.94;40.74;97787.31;8382382;28;20244;-67
2023/03/17 02:03:48;;;;;;;4.13;3.03;;;;;;;8.04;40.47;97790.38;8381658;28;20229;-67
2023/03/17 02:07:51;;;;;;;3.37;2.80;;;;;;;7.55;41.22;97782.66;8382005;28;20424;-67
2023/03/17 02:11:54;;;;;;;3.17;2.80;;;;;;;7.37;40.65;97760.16;8382035;28;20229;-67
2023/03/17 02:15:59;;;;;;;4.43;2.73;;;;;;;7.59;41.19;97781.66;8381821;28;20239;-67
2023/03/17 02:20:13;;;;;;;2.83;2.60;;;;;;;7.60;41.16;97767.91;8381642;28;20238;-67
2023/03/17 02:24:23;;;;;;;2.63;2.43;;;;;;;7.47;40.78;97763.25;8381366;28;20236;-67
2023/03/17 02:28:29;;;;;;;2.80;2.60;;;;;;;7.91;40.32;97760.78;8381486;28;20225;-67
2023/03/17 02:32:35;;;;;;;3.10;2.63;;;;;;;7.56;40.89;97745.72;8381245;28;20229;-66
2023/03/17 02:36:38;;;;;;;3.30;2.57;;;;;;;7.54;40.62;97749.22;8381310;28;20225;-66
2023/03/17 02:40:42;;;;;;;3.30;2.70;;;;;;;7.51;40.73;97760.50;8381103;28;20426;-67
2023/03/17 02:44:44;;;;;;;3.63;2.50;;;;;;;7.79;40.11;97755.19;8380586;28;20240;-67
2023/03/17 02:48:47;;;;;;;4.03;2.60;;;;;;;7.82;40.20;97751.66;8380725;28;20232;-67
2023/03/17 02:52:50;;;;;;;4.30;2.63;;;;;;;7.55;40.36;97750.91;8380692;28;20229;-66
2023/03/17 02:56:58;;;;;;;3.20;2.57;;;;;;;7.69;40.10;97746.13;8380075;28;20453;-67
2023/03/17 03:01:01;;;;;;;3.60;2.67;;;;;;;7.92;40.03;97762.47;8380445;28;20228;-65
2023/03/17 03:05:05;;;;;;;5.80;2.80;;;;;;;7.80;39.97;97761.19;8380175;28;20228;-66
2023/03/17 03:09:08;;;;;;;3.90;2.60;;;;;;;7.69;39.95;97755.56;8380122;28;20225;-68
2023/03/17 03:13:12;;;;;;;2.60;2.33;;;;;;;7.89;39.66;97740.22;8379900;28;20220;-67
2023/03/17 03:17:15;;;;;;;3.13;2.60;;;;;;;7.71;40.12;97743.47;8379993;28;20552;-66
2023/03/17 03:21:18;;;;;;;3.37;2.93;;;;;;;7.40;40.74;97732.50;8379690;28;20485;-66
2023/03/17 03:25:21;;;;;;;3.40;2.60;;;;;;;7.75;39.95;97727.84;8379654;28;20224;-66
2023/03/17 03:29:26;;;;;;;5.17;3.10;;;;;;;7.54;40.06;97729.47;8379642;28;20266;-66
2023/03/17 03:33:29;;;;;;;3.57;3.00;;;;;;;7.52;40.58;97725.25;8379718;28;20235;-66
2023/03/17 03:37:32;;;;;;;3.90;3.03;;;;;;;7.39;40.46;97724.88;8379626;28;20221;-66
2023/03/17 03:41:34;;;;;;;5.00;3.00;;;;;;;7.19;40.96;97710.09;8379060;28;20457;-66
2023/03/17 03:45:39;;;;;;;5.20;3.53;;;;;;;6.72;41.38;97730.53;8379182;28;20225;-66
2023/03/17 03:49:42;;;;;;;3.57;3.23;;;;;;;6.80;42.21;97729.41;8378814;28;20235;-67
2023/03/17 03:53:45;;;;;;;4.80;3.43;;;;;;;7.30;41.18;97738.91;8378990;28;20240;-67
2023/03/17 03:57:48;;;;;;;4.83;3.23;;;;;;;6.83;41.91;97733.59;8379029;28;20236;-66
2023/03/17 04:01:52;;;;;;;4.93;3.57;;;;;;;6.71;42.23;97731.44;8379130;28;20433;-66
2023/03/17 04:05:55;;;;;;;4.67;3.77;;;;;;;7.14;41.26;97730.88;8379001;28;20229;-66
2023/03/17 04:09:58;;;;;;;3.97;3.60;;;;;;;6.24;42.36;97716.63;8383751;28;20228;-66
2023/03/17 04:14:01;;;;;;;4.10;3.70;;;;;;;6.44;42.94;97713.44;8385809;28;20245;-68
2023/03/17 04:18:05;;;;;;;4.50;3.70;;;;;;;7.12;41.14;97714.63;8385349;28;20282;-66
2023/03/17 04:22:12;;;;;;;4.33;3.47;;;;;;;6.82;41.76;97701.06;8385304;28;20500;-67
2023/03/17 04:26:16;;;;;;;5.17;3.20;;;;;;;6.57;42.48;97703.59;8385376;28;20512;-66
2023/03/17 04:30:22;;;;;;;4.30;3.13;;;;;;;6.62;42.55;97697.38;8385403;28;20225;-66
2023/03/17 04:34:27;;;;;;;4.43;3.40;;;;;;;6.82;42.04;97706.22;8385640;28;20597;-66
2023/03/17 04:38:29;;;;;;;4.33;3.13;;;;;;;5.76;44.27;97694.88;8385098;28;20244;-66
2023/03/17 04:42:32;;;;;;;6.57;3.23;;;;;;;5.95;43.48;97690.06;8384944;28;20231;-67
2023/03/17 04:46:35;;;;;;;5.40;3.47;;;;;;;6.55;42.93;97700.22;8384781;28;20233;-66
2023/03/17 04:50:39;;;;;;;6.27;3.47;;;;;;;6.69;42.37;97705.75;8384522;28;20217;-67
2023/03/17 04:54:42;;;;;;;5.07;3.27;;;;;;;6.82;41.92;97713.94;8384461;28;20236;-67
2023/03/17 04:58:45;;;;;;;3.80;3.40;;;;;;;6.88;41.76;97729.16;8384489;28;20283;-67
2023/03/17 05:02:48;;;;;;;4.50;4.10;;;;;;;6.87;41.82;97719.75;8384278;28;20232;-66
2023/03/17 05:06:52;;;;;;;5.57;4.07;;;;;;;6.63;42.17;97708.53;8383772;28;20233;-66
2023/03/17 05:10:56;;;;;;;5.00;3.87;;;;;;;6.39;42.84;97699.88;8383884;28;20229;-66
2023/03/17 05:14:59;;;;;;;5.73;4.27;;;;;;;6.60;42.65;97706.06;8383876;28;20285;-66
2023/03/17 05:19:02;;;;;;;4.77;4.20;;;;;;;6.78;41.92;97697.75;8383296;28;20236;-66
2023/03/17 05:23:06;;;;;;;5.37;4.33;;;;;;;6.14;43.17;97700.63;8383214;28;20236;-66
2023/03/17 05:27:09;;;;;;;5.83;4.67;;;;;;;6.62;42.47;97699.97;8382959;28;20233;-66
2023/03/17 05:31:11;;;;;;;5.87;4.80;;;;;;;6.89;42.50;97699.09;8382494;28;20224;-66
2023/03/17 05:35:14;;;;;;;5.07;4.30;;;;;;;7.10;41.50;97705.25;8383250;28;20228;-66
2023/03/17 05:39:19;;;;;;;6.47;4.70;;;;;;;6.54;42.65;97704.53;8383226;28;20232;-66
2023/03/17 05:43:22;;;;;;;7.67;4.43;;;;;;;6.75;42.52;97708.13;8382664;28;20225;-66
2023/03/17 05:47:25;;;;;;;5.77;4.47;;;;;;;6.83;42.21;97713.88;8382724;28;20225;-66
2023/03/17 05:51:28;;;;;;;10.67;7.70;;;;;;;6.55;42.50;97701.06;8382861;28;20235;-66
2023/03/17 05:55:32;;;;;;;6.23;5.47;;;;;;;6.78;42.42;97702.06;8382381;28;20521;-66
2023/03/17 05:59:35;;;;;;;6.63;4.10;;;;;;;7.04;41.40;97703.72;8382578;28;20228;-67
2023/03/17 06:03:38;;;;;;;5.40;3.83;;;;;;;7.15;41.39;97705.94;8382290;28;20230;-67
2023/03/17 06:07:41;;;;;;;7.43;4.87;;;;;;;6.87;41.55;97698.31;8381869;28;20248;-67
2023/03/17 06:11:58;;;;;;;5.93;3.70;;;;;;;7.15;40.39;97680.19;8381707;28;20232;-66
2023/03/17 06:16:01;;;;;;;5.60;3.33;;;;;;;8.10;39.71;97683.56;8382099;28;20661;-66
2023/03/17 06:20:05;;;;;;;5.67;3.63;;;;;;;8.12;39.09;97672.28;8381817;28;20307;-68
2023/03/17 06:24:10;;;;;;;4.37;3.57;;;;;;;8.57;38.61;97670.56;8381899;28;20248;-68
2023/03/17 06:28:15;;;;;;;5.53;3.80;;;;;;;9.28;36.61;97676.16;8381613;28;20225;-67
2023/03/17 06:32:19;;;;;;;5.37;3.70;;;;;;;9.54;36.16;97680.19;8380493;28;20241;-67
2023/03/17 06:36:23;;;;;;;4.40;3.57;;;;;;;9.07;37.08;97677.91;8381112;28;20229;-67
2023/03/17 06:40:25;;;;;;;4.10;3.70;;;;;;;8.22;38.65;97672.75;8381434;28;20231;-67
2023/03/17 06:44:30;;;;;;;6.00;3.93;;;;;;;8.86;37.02;97684.84;8380964;28;20240;-67
2023/03/17 06:48:33;;;;;;;4.67;3.60;;;;;;;8.53;38.47;97699.94;8380315;28;20225;-67
2023/03/17 06:52:37;;;;;;;4.07;3.03;;;;;;;9.00;37.26;97703.19;8380497;28;20251;-67
2023/03/17 06:56:40;;;;;;;3.77;3.47;;;;;;;8.38;38.43;97717.72;8380587;28;20241;-68
2023/03/17 07:00:45;;;;;;;5.10;3.90;;;;;;;8.56;38.32;97715.31;8379792;28;20225;-68
2023/03/17 07:04:48;;;;;;;4.60;3.50;;;;;;;9.16;37.01;97720.63;8380108;28;20532;-67
2023/03/17 07:08:51;;;;;;;5.87;3.47;;;;;;;9.63;37.07;97725.44;8379802;28;20228;-68
2023/03/17 07:12:54;;;;;;;4.03;3.30;;;;;;;9.46;36.29;97715.00;8380085;28;20228;-67
2023/03/17 07:16:59;;;;;;;3.97;2.87;;;;;;;9.19;37.27;97717.88;8379752;28;20239;-67
2023/03/17 07:21:03;;;;;;;6.53;3.07;;;;;;;9.94;35.89;97711.16;8379734;28;20244;-68
2023/03/17 07:25:08;;;;;;;4.37;3.07;;;;;;;9.94;36.68;97708.56;8379730;28;20528;-68
2023/03/17 07:29:11;;;;;;;4.90;2.93;;;;;;;11.05;34.64;97709.28;8379615;28;20225;-68
2023/03/17 07:33:16;;;;;;;3.87;3.10;;;;;;;10.31;35.80;97702.53;8379716;28;20218;-67
2023/03/17 07:37:20;;;;;;;5.60;2.90;;;;;;;10.74;34.95;97697.88;8379442;28;20226;-68
2023/03/17 07:41:22;;;;;;;3.47;2.70;;;;;;;11.32;34.21;97694.09;8379514;28;20227;-68
2023/03/17 07:45:26;;;;;;;7.60;3.20;;;;;;;10.56;34.87;97696.19;8379350;28;20242;-68
2023/03/17 07:49:31;;;;;;;5.07;3.00;;;;;;;10.54;35.46;97692.81;8378986;28;20419;-68
2023/03/17 07:53:44;;;;;;;6.03;2.90;;;;;;;11.29;34.53;97689.06;8378364;28;20235;-68
2023/03/17 07:57:46;;;;;;;4.90;2.80;;;;;;;10.56;34.98;97689.25;8378814;28;20233;-68
2023/03/17 08:01:50;;;;;;;5.43;3.10;;;;;;;9.93;36.59;97687.00;8378841;28;20319;-67
2023/03/17 08:05:54;;;;;;;5.47;3.10;;;;;;;11.20;34.92;97692.13;8378510;28;20240;-67
2023/03/17 08:09:57;;;;;;;3.23;2.40;;;;;;;12.87;40.75;97689.13;8378675;28;20532;-68
2023/03/17 08:14:01;;;;;;;4.67;3.10;;;;;;;10.83;35.90;97672.41;8378664;28;20251;-68
2023/03/17 08:18:05;;;;;;;5.07;3.10;;;;;;;11.74;34.63;97672.00;8378704;28;20227;-68
2023/03/17 08:22:10;;;;;;;5.27;2.70;;;;;;;11.86;33.93;97672.25;8378570;28;20229;-68
2023/03/17 08:26:14;;;;;;;3.33;2.53;;;;;;;11.96;33.55;97670.06;8378572;28;20229;-68
2023/03/17 08:30:19;;;;;;;5.53;2.40;;;;;;;12.21;32.49;97654.78;8378682;28;20287;-68
2023/03/17 08:34:22;;;;;;;4.37;2.50;;;;;;;12.86;31.72;97675.31;8378556;28;20520;-68
2023/03/17 08:38:27;;;;;;;3.80;2.40;;;;;;;11.85;33.64;97660.22;8378534;28;20229;-68
2023/03/17 08:42:30;;;;;;;4.03;2.37;;;;;;;12.55;32.94;97665.03;8378348;28;20228;-68
2023/03/17 08:46:33;;;;;;;4.23;2.60;;;;;;;13.06;31.53;97665.50;8378299;28;20233;-68
2023/03/17 08:50:36;;;;;;;3.73;2.10;;;;;;;12.75;31.19;97659.50;8378064;28;20225;-68
2023/03/17 08:54:40;;;;;;;2.57;2.00;;;;;;;13.78;30.53;97655.97;8380252;28;20523;-69
2023/03/17 08:58:43;;;;;;;5.03;2.27;;;;;;;13.74;31.49;97648.44;8383856;28;20237;-69
2023/03/17 09:02:47;;;;;;;4.77;2.27;;;;;;;13.69;30.18;97639.16;8384150;28;20410;-68
2023/03/17 09:06:50;;;;;;;3.03;1.93;;;;;;;14.97;29.46;97650.97;8383646;28;20556;-68
2023/03/17 09:11:09;;;;;;;3.70;1.80;;;;;;;15.13;29.53;97646.38;8383932;28;20231;-68
2023/03/17 09:15:13;;;;;;;2.53;1.90;;;;;;;16.15;28.10;97611.44;8383904;28;20542;-68
2023/03/17 09:19:16;;;;;;;3.90;1.73;;;;;;;13.61;29.87;97640.56;8383693;28;20236;-68
2023/03/17 09:23:19;;;;;;;2.43;1.90;;;;;;;13.74;30.40;97628.47;8383537;28;20251;-68
2023/03/17 09:27:23;;;;;;;2.80;2.03;;;;;;;14.63;29.16;97638.41;8383523;28;20540;-68
2023/03/17 09:31:26;;;;;;;2.37;1.80;;;;;;;14.75;29.46;97634.16;8383640;28;20531;-69
2023/03/17 09:35:31;;;;;;;2.00;1.67;;;;;;;15.05;28.96;97628.66;8383277;28;20231;-68
2023/03/17 09:39:35;;;;;;;2.20;1.80;;;;;;;15.24;28.78;97635.22;8383144;28;20294;-68
2023/03/17 09:43:44;;;;;;;4.10;1.63;;;;;;;15.33;29.36;97631.16;8382825;28;20240;-68
2023/03/17 09:47:55;;;;;;;1.60;1.50;;;;;;;16.23;27.59;97635.22;8382254;28;20234;-68
2023/03/17 09:51:58;;;;;;;3.13;1.90;;;;;;;16.55;26.80;97646.88;8382975;28;20230;-68
2023/03/17 09:56:04;;;;;;;1.70;1.60;;;;;;;16.41;27.06;97635.66;8382786;28;20439;-68
2023/03/17 10:00:13;;;;;;;2.40;1.83;;;;;;;15.92;27.24;97588.78;8382536;28;20226;-69
2023/03/17 10:04:17;;;;;;;3.70;1.60;;;;;;;17.35;26.55;97649.56;8382428;28;20290;-69
2023/03/17 10:08:23;;;;;;;3.67;1.70;;;;;;;16.33;27.16;97632.75;8382113;28;20228;-69
2023/03/17 10:12:43;;;;;;;4.20;1.80;;;;;;;15.49;28.16;97623.91;8382018;28;20236;-68
2023/03/17 10:16:52;;;;;;;1.40;1.30;;;;;;;14.96;28.43;97624.06;8381630;28;20222;-69
2023/03/17 10:20:58;;;;;;;1.97;1.50;;;;;;;15.22;28.56;97627.50;8381727;28;20233;-68
2023/03/17 10:25:04;;;;;;;4.93;1.73;;;;;;;15.28;28.24;97621.03;8381589;28;20292;-69
2023/03/17 10:29:11;;;;;;;1.73;1.30;;;;;;;16.10;27.24;97618.75;8381398;28;20221;-68
2023/03/17 10:33:17;;;;;;;2.27;1.40;;;;;;;15.29;28.30;97617.50;8381151;28;20233;-69
2023/03/17 10:37:22;;;;;;;4.50;1.40;;;;;;;15.65;27.91;97608.03;8381688;28;20234;-68
2023/03/17 10:41:25;;;;;;;2.33;1.43;;;;;;;15.45;28.31;97597.19;8381252;28;20468;-68
2023/03/17 10:45:29;;;;;;;1.87;1.13;;;;;;;16.68;27.17;97595.34;8380895;28;20225;-68
2023/03/17 10:49:36;;;;;;;1.60;1.40;;;;;;;16.72;27.41;97586.31;8380730;28;20230;-69
2023/03/17 10:53:42;;;;;;;1.47;1.33;;;;;;;15.59;28.91;97577.97;8380587;28;20229;-69
2023/03/17 10:57:51;;;;;;;3.23;1.50;;;;;;;16.43;28.34;97575.44;8378989;28;20327;-69
2023/03/17 11:01:57;;;;;;;1.77;1.43;;;;;;;16.58;27.25;97582.13;8380371;28;20229;-68
2023/03/17 11:06:03;;;;;;;3.50;1.50;;;;;;;16.37;28.18;97587.19;8378990;28;20441;-69
2023/03/17 11:10:17;;;;;;;1.73;1.23;;;;;;;16.88;26.79;97569.50;8379750;28;20228;-70
2023/03/17 11:14:26;;;;;;;1.47;1.20;;;;;;;16.51;26.70;97569.66;8379724;28;20272;-69
2023/03/17 11:18:35;;;;;;;4.30;1.40;;;;;;;16.87;26.79;97559.97;8379375;28;20244;-68
2023/03/17 11:22:41;;;;;;;2.17;1.50;;;;;;;17.41;26.74;97566.31;8379745;28;20233;-69
2023/03/17 11:26:54;;;;;;;2.03;1.20;;;;;;;16.54;27.41;97559.78;8379290;28;20229;-69
2023/03/17 11:31:03;;;;;;;1.30;1.20;;;;;;;16.10;27.69;97556.06;8379431;28;20525;-68
2023/03/17 11:35:28;;;;;;;1.30;1.20;;;;;;;17.14;27.01;97539.56;8379583;28;20397;-68
2023/03/17 11:39:36;;;;;;;2.40;1.40;;;;;;;17.66;26.99;97544.25;8373045;28;20378;-67
2023/03/17 11:43:47;;;;;;;1.90;1.20;;;;;;;18.00;25.98;97534.53;8379296;28;20224;-68
2023/03/17 11:48:13;;;;;;;2.23;1.20;;;;;;;17.49;26.36;97533.31;8378922;28;20222;-68
2023/03/17 11:52:21;;;;;;;1.93;1.20;;;;;;;17.27;26.15;97518.50;8379165;28;20226;-68
2023/03/17 11:56:34;;;;;;;1.30;1.20;;;;;;;16.29;27.62;97532.03;8379189;28;20243;-68
2023/03/17 12:00:39;;;;;;;1.43;1.30;;;;;;;17.22;27.01;97527.66;8379055;28;20224;-68
2023/03/17 12:04:50;;;;;;;1.20;0.93;;;;;;;18.20;25.64;97524.19;8378718;28;20229;-68
2023/03/17 12:08:56;;;;;;;1.67;1.30;;;;;;;18.48;25.74;97515.69;8378758;28;20294;-69
2023/03/17 12:13:03;;;;;;;4.27;1.20;;;;;;;19.02;25.98;97511.19;8378458;28;20304;-68
2023/03/17 12:17:11;;;;;;;1.73;1.10;;;;;;;18.70;25.62;97490.31;8378254;28;20232;-68
2023/03/17 12:21:20;;;;;;;3.13;1.03;;;;;;;18.13;25.25;97501.13;8378747;28;20232;-69
2023/03/17 12:25:25;;;;;;;1.37;1.07;;;;;;;18.11;25.99;97489.94;8378313;28;20225;-67
2023/03/17 12:29:41;;;;;;;2.60;1.00;;;;;;;18.64;25.61;97499.50;8380073;28;20233;-68
2023/03/17 12:33:48;;;;;;;2.40;1.60;;;;;;;19.03;24.87;97483.97;8384133;28;20248;-68
2023/03/17 12:37:51;;;;;;;1.10;0.93;;;;;;;18.97;25.99;97486.31;8384978;28;20528;-68
2023/03/17 12:42:07;;;;;;;1.27;1.00;;;;;;;19.52;25.66;97484.91;8385004;28;20241;-69
2023/03/17 12:46:22;;;;;;;2.40;1.00;;;;;;;19.77;24.75;97485.41;8384619;28;20403;-68
2023/03/17 12:50:40;;;;;;;1.63;1.40;;;;;;;20.43;24.90;97471.50;8384676;28;20530;-68
2023/03/17 12:54:46;;;;;;;2.07;1.17;;;;;;;18.78;25.54;97388.16;8384052;28;20239;-69
2023/03/17 12:58:50;;;;;;;1.53;1.30;;;;;;;19.27;25.54;97454.75;8383987;28;20237;-69
2023/03/17 13:03:12;;;;;;;1.57;1.03;;;;;;;19.90;25.34;97443.09;8383658;28;20553;-69
2023/03/17 13:07:17;;;;;;;6.80;1.70;;;;;;;19.30;25.48;97436.09;8383853;28;20234;-69
2023/03/17 13:11:27;;;;;;;1.30;1.00;;;;;;;19.25;25.34;97434.88;8383622;28;20488;-68
2023/03/17 13:15:57;;;;;;;1.00;0.90;;;;;;;19.08;24.79;97436.34;8383730;28;20221;-68
2023/03/17 13:20:13;;;;;;;2.33;1.00;;;;;;;18.72;25.21;97426.25;8383387;28;20512;-69
2023/03/17 13:24:38;;;;;;;0.90;0.90;;;;;;;19.06;24.86;97428.59;8383743;28;20509;-68
2023/03/17 13:28:44;;;;;;;1.00;0.90;;;;;;;18.56;25.80;97431.13;8383122;28;20245;-68
2023/03/17 13:32:55;;;;;;;1.57;0.90;;;;;;;18.86;25.54;97422.47;8382486;28;20221;-68
2023/03/17 13:37:04;;;;;;;1.63;0.90;;;;;;;18.45;25.82;97416.34;8383175;28;20343;-68
2023/03/17 13:41:31;;;;;;;1.53;0.90;;;;;;;18.40;25.87;97415.91;8382504;28;20267;-69
2023/03/17 13:45:38;;;;;;;1.17;0.90;;;;;;;18.43;26.21;97409.56;8382640;28;20230;-67
2023/03/17 13:49:40;;;;;;;0.80;0.80;;;;;;;18.20;26.06;97411.50;8382528;28;20292;-68
2023/03/17 13:53:49;;;;;;;1.20;1.10;;;;;;;18.33;26.42;97406.88;8381801;28;20506;-69
2023/03/17 13:57:56;;;;;;;1.40;1.07;;;;;;;18.16;27.12;97413.56;8382636;28;20252;-68
2023/03/17 14:02:01;;;;;;;1.20;0.93;;;;;;;18.16;27.01;97408.31;8382295;28;20243;-69
2023/03/17 14:06:08;;;;;;;2.73;0.93;;;;;;;17.84;27.32;97385.66;8382193;28;20453;-69
2023/03/17 14:10:20;;;;;;;1.40;0.87;;;;;;;17.91;27.61;97406.91;8382147;28;20531;-68
2023/03/17 14:14:29;;;;;;;1.43;0.90;;;;;;;17.83;27.01;97396.22;8382319;28;20236;-68
2023/03/17 14:18:36;;;;;;;1.13;0.80;;;;;;;18.13;26.71;97388.44;8382342;28;20243;-68
2023/03/17 14:22:40;;;;;;;1.47;0.80;;;;;;;18.13;27.65;97387.63;8382195;28;20233;-69
2023/03/17 14:26:49;;;;;;;0.83;0.80;;;;;;;17.94;27.33;97386.53;8381088;28;20499;-69
2023/03/17 14:30:54;;;;;;;3.30;0.90;;;;;;;17.98;27.87;97376.63;8381567;28;20639;-69
2023/03/17 14:34:58;;;;;;;2.33;0.93;;;;;;;17.76;28.01;97375.78;8381519;28;20287;-69
2023/03/17 14:39:01;;;;;;;1.10;1.00;;;;;;;18.32;27.94;97376.41;8381552;28;20252;-69
2023/03/17 14:43:05;;;;;;;1.63;0.70;;;;;;;18.30;28.10;97370.47;8381400;28;20441;-69
2023/03/17 14:47:15;;;;;;;1.00;0.90;;;;;;;18.25;28.15;97362.16;8380764;28;20556;-69
2023/03/17 14:51:25;;;;;;;1.90;0.77;;;;;;;17.97;28.19;97354.00;8380275;28;20291;-69
2023/03/17 14:55:38;;;;;;;2.73;1.07;;;;;;;18.18;28.41;97346.13;8381038;28;20225;-68
2023/03/17 14:59:55;;;;;;;1.67;0.80;;;;;;;17.85;29.00;97357.66;8380409;28;20260;-69
2023/03/17 15:04:04;;;;;;;2.50;0.80;;;;;;;18.12;28.55;97352.72;8379524;28;20292;-69
2023/03/17 15:08:44;;;;;;;1.27;1.00;;;;;;;18.01;28.98;97344.09;8380508;28;20232;-68
2023/03/17 15:12:47;;;;;;;1.10;0.90;;;;;;;17.94;28.19;97346.44;8373054;28;20533;-68
2023/03/17 15:16:52;;;;;;;0.70;0.70;;;;;;;18.11;28.03;97345.81;8380394;28;20544;-69
2023/03/17 15:20:57;;;;;;;1.10;0.80;;;;;;;18.25;28.03;97343.81;8379491;28;20532;-68
2023/03/17 15:25:01;;;;;;;2.97;0.90;;;;;;;18.10;28.24;97341.53;8379512;28;20236;-69
2023/03/17 15:29:04;;;;;;;2.07;1.00;;;;;;;18.31;27.70;97335.41;8379571;28;20225;-69
2023/03/17 15:33:19;;;;;;;0.73;0.70;;;;;;;17.96;28.82;97320.94;8379278;28;20233;-69
2023/03/17 15:37:24;;;;;;;0.90;0.90;;;;;;;17.98;28.25;97332.94;8379217;28;20228;-68
2023/03/17 15:41:27;;;;;;;1.40;0.90;;;;;;;17.68;29.00;97325.00;8379394;28;20433;-68
2023/03/17 15:45:30;;;;;;;2.27;0.90;;;;;;;17.74;29.44;97332.34;8378758;28;20417;-68
2023/03/17 15:49:34;;;;;;;1.43;0.80;;;;;;;17.62;29.13;97336.00;8378758;28;20233;-68
2023/03/17 15:53:37;;;;;;;1.57;0.80;;;;;;;17.81;29.42;97337.91;8378733;28;20229;-68
2023/03/17 15:57:40;;;;;;;1.70;1.00;;;;;;;17.53;29.47;97300.91;8378745;28;20251;-68
2023/03/17 16:01:47;;;;;;;1.10;1.00;;;;;;;17.45;29.62;97329.53;8378320;28;20232;-68
2023/03/17 16:05:51;;;;;;;2.13;1.33;;;;;;;17.47;29.98;97325.81;8388558;28;20229;-68
2023/03/17 16:09:54;;;;;;;2.10;1.30;;;;;;;17.49;30.36;97328.31;8389508;28;20236;-68
2023/03/17 16:14:00;;;;;;;2.60;1.63;;;;;;;17.07;30.76;97289.03;8389177;28;20248;-69
2023/03/17 16:18:04;;;;;;;2.03;1.80;;;;;;;17.46;29.85;97318.09;8387960;28;20756;-68
2023/03/17 16:22:15;;;;;;;5.87;1.93;;;;;;;16.93;30.97;97314.50;8389579;28;20229;-69
2023/03/17 16:26:18;;;;;;;2.07;1.50;;;;;;;17.04;30.75;97308.41;8389447;28;20228;-68
2023/03/17 16:30:23;;;;;;;2.17;1.40;;;;;;;16.93;31.09;97304.06;8389164;28;20222;-69
2023/03/17 16:34:26;;;;;;;1.30;1.20;;;;;;;17.08;31.42;97301.97;8389094;28;20236;-68
2023/03/17 16:38:32;;;;;;;2.77;2.57;;;;;;;16.96;31.50;97311.66;8389713;28;20224;-68
2023/03/17 16:42:34;;;;;;;2.63;2.20;;;;;;;17.05;31.54;97311.84;8389354;28;20544;-68
2023/03/17 16:46:43;;;;;;;2.47;1.73;;;;;;;16.76;32.00;97313.22;8389165;28;20547;-68
2023/03/17 16:50:46;;;;;;;1.87;1.60;;;;;;;16.74;32.22;97316.91;8388980;28;20398;-69
2023/03/17 16:54:50;;;;;;;1.70;1.53;;;;;;;16.94;32.13;97321.38;8388927;28;20236;-68
2023/03/17 16:58:53;;;;;;;1.50;1.40;;;;;;;16.63;32.23;97327.38;8388796;28;20263;-68
2023/03/17 17:02:56;;;;;;;2.37;1.80;;;;;;;16.67;32.36;97316.56;8388874;28;20232;-68
2023/03/17 17:06:58;;;;;;;1.90;1.70;;;;;;;16.46;32.67;97321.69;8388946;28;20260;-68
2023/03/17 17:11:03;;;;;;;2.37;1.80;;;;;;;16.34;33.14;97307.81;8388745;28;20243;-68
2023/03/17 17:15:06;;;;;;;2.57;2.20;;;;;;;16.39;33.17;97323.97;8386221;28;20240;-68
2023/03/17 17:19:14;;;;;;;3.03;2.73;;;;;;;16.46;33.35;97320.88;8383627;28;20232;-68
2023/03/17 17:23:19;;;;;;;3.63;2.57;;;;;;;16.30;33.55;97322.06;8383255;28;20231;-69
2023/03/17 17:27:24;;;;;;;2.67;2.17;;;;;;;16.23;34.02;97326.94;8383035;28;20243;-68
2023/03/17 17:31:28;;;;;;;2.97;2.40;;;;;;;16.20;34.09;97321.97;8382607;28;20299;-70
2023/03/17 17:35:32;;;;;;;3.73;2.17;;;;;;;16.15;34.14;97307.59;8382698;28;20226;-68
2023/03/17 17:39:35;;;;;;;2.73;1.90;;;;;;;15.70;35.12;97324.00;8383026;28;20578;-68
2023/03/17 17:43:40;;;;;;;3.47;2.60;;;;;;;15.92;34.68;97327.66;8381636;28;20262;-69
2023/03/17 17:47:43;;;;;;;3.57;2.20;;;;;;;15.85;34.84;97331.66;8381458;28;20229;-69
2023/03/17 17:51:45;;;;;;;3.10;2.80;;;;;;;16.01;34.48;97334.75;8382382;28;20232;-69
2023/03/17 17:55:49;;;;;;;8.73;3.53;;;;;;;15.79;35.21;97328.56;8382276;28;20241;-68
2023/03/17 17:59:53;;;;;;;5.43;3.30;;;;;;;15.98;35.23;97329.78;8382272;28;20231;-68
2023/03/17 18:03:56;;;;;;;4.20;3.80;;;;;;;15.78;35.64;97326.06;8382160;28;20229;-69
2023/03/17 18:08:01;;;;;;;3.50;3.20;;;;;;;15.62;35.71;97332.41;8382223;28;20235;-68
2023/03/17 18:12:04;;;;;;;3.33;2.97;;;;;;;15.30;36.58;97337.41;8381977;28;20235;-68
2023/03/17 18:16:09;;;;;;;3.80;3.20;;;;;;;15.22;36.90;97343.19;8381468;28;20241;-68
2023/03/17 18:20:17;;;;;;;3.97;2.77;;;;;;;15.15;36.85;97346.34;8381672;28;20237;-68
2023/03/17 18:24:20;;;;;;;3.10;2.77;;;;;;;15.59;35.88;97342.25;8381527;28;20522;-69
2023/03/17 18:28:22;;;;;;;4.07;3.37;;;;;;;15.39;36.17;97347.16;8380142;28;20228;-69
2023/03/17 18:32:27;;;;;;;5.53;3.67;;;;;;;15.40;36.10;97348.84;8381248;28;20226;-68
2023/03/17 18:36:30;;;;;;;4.00;3.60;;;;;;;15.56;35.87;97352.94;8380909;28;20225;-67
2023/03/17 18:40:33;;;;;;;5.13;4.23;;;;;;;15.35;35.88;97353.56;8380677;28;20237;-68
2023/03/17 18:44:36;;;;;;;5.00;4.07;;;;;;;15.13;36.29;97343.84;8380605;28;20551;-69
2023/03/17 18:48:41;;;;;;;6.73;4.50;;;;;;;15.29;35.73;97345.34;8380803;28;20298;-67
2023/03/17 18:52:44;;;;;;;5.83;4.10;;;;;;;15.32;35.52;97353.78;8380475;28;20243;-67
2023/03/17 18:56:47;;;;;;;3.67;3.27;;;;;;;14.94;35.80;97359.16;8380458;28;20305;-68
2023/03/17 19:00:52;;;;;;;4.47;3.60;;;;;;;15.19;35.31;97351.25;8380128;28;20241;-68
2023/03/17 19:04:56;;;;;;;3.97;3.00;;;;;;;14.98;35.84;97353.66;8380255;28;20243;-68
2023/03/17 19:08:58;;;;;;;5.23;3.63;;;;;;;14.95;36.06;97355.63;8379782;28;20228;-68
2023/03/17 19:13:03;;;;;;;3.43;3.00;;;;;;;15.02;35.99;97359.44;8380083;28;20259;-67
2023/03/17 19:17:06;;;;;;;4.27;2.97;;;;;;;15.14;35.36;97363.78;8379754;28;20224;-67
2023/03/17 19:21:11;;;;;;;4.30;3.13;;;;;;;14.98;35.78;97363.22;8379774;28;20228;-68